Time;durP1;ratioP1;P1;durP2;ratioP2;P2;SDS_P1;SDS_P2;PMS_P1;PMS_P2;Temp;Humidity;BMP_temperature;BMP_pressure;BME280_temperature;BME280_humidity;BME280_pressure;Samples;Min_cycle;Max_cycle;Signal;HPM_P1;HPM_P2
2022/03/14 00:00:26;;;;;;;13.40;9.80;;;10.20;84.10;;;;;;4996546;28;20057;-83
2022/03/14 00:02:52;;;;;;;14.32;9.63;;;10.20;85.00;;;;;;5001802;28;20045;-83
2022/03/14 00:05:17;;;;;;;17.45;10.43;;;10.10;85.60;;;;;;4993670;28;20145;-82
2022/03/14 00:07:47;;;;;;;15.98;9.75;;;10.10;86.40;;;;;;5005527;28;20044;-83
2022/03/14 00:10:15;;;;;;;15.27;9.60;;;10.10;86.40;;;;;;5007532;28;20041;-82
2022/03/14 00:12:45;;;;;;;16.00;9.73;;;10.00;86.80;;;;;;4987372;28;20043;-82
2022/03/14 00:15:12;;;;;;;12.05;8.75;;;10.00;87.00;;;;;;5000754;28;20045;-81
2022/03/14 00:17:45;;;;;;;13.65;9.27;;;10.00;87.60;;;;;;5007027;28;20523;-82
2022/03/14 00:20:13;;;;;;;14.70;9.23;;;9.90;88.70;;;;;;4990363;28;20105;-81
2022/03/14 00:22:40;;;;;;;13.23;9.00;;;10.00;89.40;;;;;;5003576;28;20113;-82
2022/03/14 00:25:08;;;;;;;14.93;9.55;;;10.00;89.50;;;;;;4971290;28;20041;-81
2022/03/14 00:27:35;;;;;;;15.05;9.55;;;9.90;90.70;;;;;;5003535;28;20044;-81
2022/03/14 00:30:06;;;;;;;16.20;9.20;;;10.00;90.70;;;;;;5002634;28;20096;-81
2022/03/14 00:32:31;;;;;;;13.93;9.73;;;10.10;91.70;;;;;;5001844;28;20042;-81
2022/03/14 00:34:57;;;;;;;16.80;8.80;;;10.10;91.80;;;;;;4986834;28;20041;-82
2022/03/14 00:37:24;;;;;;;13.55;8.90;;;10.10;92.90;;;;;;5007592;28;20309;-82
2022/03/14 00:39:50;;;;;;;14.13;9.30;;;10.20;93.90;;;;;;4986687;28;20045;-82
2022/03/14 00:42:19;;;;;;;14.43;9.30;;;10.10;94.20;;;;;;5005211;28;20699;-82
2022/03/14 00:44:45;;;;;;;14.88;9.13;;;10.10;94.90;;;;;;5002917;28;20046;-82
2022/03/14 00:47:11;;;;;;;12.93;8.40;;;10.10;96.60;;;;;;5004285;28;20033;-82
2022/03/14 00:49:36;;;;;;;15.85;9.85;;;10.10;97.70;;;;;;4990519;28;20037;-82
2022/03/14 00:52:02;;;;;;;13.57;9.48;;;10.10;98.20;;;;;;5004926;28;20037;-82
2022/03/14 00:54:28;;;;;;;15.35;9.38;;;10.00;99.60;;;;;;4978946;28;20490;-82
2022/03/14 00:56:54;;;;;;;14.60;8.83;;;9.90;99.90;;;;;;5002111;28;20042;-83
2022/03/14 00:59:20;;;;;;;14.03;9.23;;;9.90;99.90;;;;;;4970299;28;20342;-82
2022/03/14 01:01:46;;;;;;;15.63;9.18;;;9.80;99.90;;;;;;5009151;28;20057;-82
2022/03/14 01:04:11;;;;;;;15.23;9.07;;;9.80;99.90;;;;;;5014731;28;20049;-82
2022/03/14 01:06:37;;;;;;;15.43;8.88;;;9.80;99.90;;;;;;5015198;28;20390;-83
2022/03/14 01:09:03;;;;;;;13.73;9.07;;;9.80;99.90;;;;;;4998664;28;20100;-82
2022/03/14 01:11:29;;;;;;;12.70;9.27;;;9.80;99.90;;;;;;5014661;28;20037;-83
2022/03/14 01:13:55;;;;;;;13.80;8.57;;;9.90;99.90;;;;;;5014957;28;20041;-82
2022/03/14 01:16:21;;;;;;;12.98;9.02;;;9.80;99.90;;;;;;5014701;28;20045;-82
2022/03/14 01:18:47;;;;;;;13.77;8.57;;;10.00;99.90;;;;;;5012478;28;20061;-82
2022/03/14 01:21:12;;;;;;;13.50;9.30;;;9.80;99.90;;;;;;5014588;28;20065;-82
2022/03/14 01:23:38;;;;;;;13.80;8.97;;;9.80;99.90;;;;;;5014870;28;20548;-83
2022/03/14 01:26:04;;;;;;;13.47;9.17;;;9.90;99.90;;;;;;5014644;28;20644;-83
2022/03/14 01:28:29;;;;;;;12.35;8.57;;;10.00;99.90;;;;;;4998650;28;20110;-83
2022/03/14 01:30:58;;;;;;;13.03;8.73;;;10.00;99.90;;;;;;5014455;28;20041;-82
2022/03/14 01:33:23;;;;;;;14.30;8.52;;;9.90;99.90;;;;;;5014394;28;20339;-82
2022/03/14 01:35:49;;;;;;;12.90;8.30;;;9.90;99.90;;;;;;5014771;28;20460;-83
2022/03/14 01:38:15;;;;;;;13.00;8.70;;;9.90;99.90;;;;;;5014378;28;20049;-83
2022/03/14 01:40:40;;;;;;;13.93;8.73;;;10.00;99.90;;;;;;5014492;28;20302;-82
2022/03/14 01:43:06;;;;;;;13.33;8.63;;;10.30;99.90;;;;;;4998152;28;20124;-83
2022/03/14 01:45:32;;;;;;;11.00;7.85;;;9.90;99.90;;;;;;4997985;28;20041;-82
2022/03/14 01:47:57;;;;;;;13.50;8.82;;;9.90;99.90;;;;;;5014586;28;20037;-82
2022/03/14 01:50:24;;;;;;;13.93;8.80;;;9.80;99.90;;;;;;4998001;28;20037;-82
2022/03/14 01:52:49;;;;;;;13.98;8.57;;;9.80;99.90;;;;;;4997989;28;20037;-83
2022/03/14 01:55:15;;;;;;;13.73;8.40;;;9.80;99.90;;;;;;4997784;28;20037;-82
2022/03/14 01:57:41;;;;;;;15.00;9.07;;;9.80;99.90;;;;;;5016874;28;20337;-82
2022/03/14 02:00:11;;;;;;;12.70;8.65;;;9.80;99.90;;;;;;5004631;28;20032;-82
2022/03/14 02:02:36;;;;;;;13.80;8.27;;;9.80;99.90;;;;;;5016787;28;20046;-82
2022/03/14 02:05:02;;;;;;;12.23;8.60;;;9.80;99.90;;;;;;5035671;28;20048;-82
2022/03/14 02:07:28;;;;;;;14.65;8.93;;;9.80;99.90;;;;;;5020732;28;20112;-82
2022/03/14 02:09:55;;;;;;;10.77;8.00;;;9.80;99.90;;;;;;5020465;28;20040;-82
2022/03/14 02:12:21;;;;;;;12.98;8.40;;;9.80;99.90;;;;;;5020858;28;20511;-83
2022/03/14 02:14:46;;;;;;;11.67;8.03;;;9.80;99.90;;;;;;4978818;28;20041;-82
2022/03/14 02:17:17;;;;;;;11.67;7.93;;;9.70;99.90;;;;;;5020691;28;20296;-82
2022/03/14 02:19:44;;;;;;;12.52;8.38;;;9.70;99.90;;;;;;5020850;28;20282;-83
2022/03/14 02:22:11;;;;;;;;;;;9.70;99.90;;;;;;5004562;28;20040;-82
2022/03/14 02:24:38;;;;;;;12.43;8.13;;;9.70;99.90;;;;;;5020724;28;19924;-82
2022/03/14 02:27:04;;;;;;;;;;;9.80;99.90;;;;;;5021049;28;20047;-82
2022/03/14 02:29:30;;;;;;;11.60;8.30;;;9.80;99.90;;;;;;5020600;28;20028;-83
2022/03/14 02:31:56;;;;;;;11.38;7.70;;;9.80;99.90;;;;;;5020663;28;20041;-82
2022/03/14 02:34:21;;;;;;;12.07;7.90;;;9.80;99.90;;;;;;5020395;28;20041;-83
2022/03/14 02:36:47;;;;;;;11.70;7.00;;;9.90;99.90;;;;;;5020582;28;20033;-83
2022/03/14 02:39:14;;;;;;;11.00;7.65;;;9.90;99.90;;;;;;4997172;28;20041;-83
2022/03/14 02:41:41;;;;;;;11.18;7.20;;;9.90;99.90;;;;;;5020362;28;20041;-83
2022/03/14 02:44:08;;;;;;;11.18;7.78;;;9.90;99.90;;;;;;5004687;28;20480;-83
2022/03/14 02:46:34;;;;;;;10.88;7.63;;;10.00;99.90;;;;;;5020840;28;20516;-83
2022/03/14 02:49:00;;;;;;;;;;;9.90;99.90;;;;;;5020794;28;20132;-82
2022/03/14 02:51:27;;;;;;;11.70;7.97;;;9.90;99.90;;;;;;5020509;28;20384;-83
2022/03/14 02:53:56;;;;;;;12.65;7.75;;;9.90;99.90;;;;;;5004054;28;20037;-82
2022/03/14 02:56:22;;;;;;;11.50;8.18;;;9.90;99.90;;;;;;5004004;28;20409;-83
2022/03/14 02:58:52;;;;;;;12.25;8.32;;;9.90;99.90;;;;;;5020434;28;20048;-83
2022/03/14 03:01:18;;;;;;;12.55;8.02;;;9.80;99.90;;;;;;5020342;28;20033;-82
2022/03/14 03:03:44;;;;;;;12.13;8.35;;;9.70;99.90;;;;;;5005263;28;20536;-83
2022/03/14 03:06:12;;;;;;;11.60;7.65;;;9.70;99.90;;;;;;4996229;28;20053;-82
2022/03/14 03:08:38;;;;;;;10.68;7.60;;;9.70;99.90;;;;;;4971731;28;20117;-83
2022/03/14 03:11:08;;;;;;;11.70;7.80;;;9.70;99.90;;;;;;4981256;28;20563;-83
2022/03/14 03:13:35;;;;;;;14.00;8.27;;;9.70;99.90;;;;;;4997183;28;20096;-82
2022/03/14 03:16:01;;;;;;;13.20;7.88;;;9.70;99.90;;;;;;4981175;28;20393;-82
2022/03/14 03:18:26;;;;;;;11.93;7.88;;;9.70;99.90;;;;;;4980768;28;20034;-82
2022/03/14 03:20:52;;;;;;;9.47;6.80;;;9.70;99.90;;;;;;4960477;28;20034;-83
2022/03/14 03:23:19;;;;;;;11.17;7.13;;;9.70;99.90;;;;;;4980840;28;20292;-83
2022/03/14 03:25:44;;;;;;;;;;;9.70;99.90;;;;;;4997535;28;20048;-82
2022/03/14 03:28:10;;;;;;;11.13;6.68;;;9.70;99.90;;;;;;4997158;28;19925;-82
2022/03/14 03:30:36;;;;;;;10.23;6.82;;;9.80;99.90;;;;;;4980729;28;20069;-82
2022/03/14 03:33:01;;;;;;;10.73;6.45;;;9.80;99.90;;;;;;4974064;28;20398;-82
2022/03/14 03:35:27;;;;;;;9.20;5.97;;;9.80;99.90;;;;;;4948406;28;20034;-82
2022/03/14 03:37:53;;;;;;;8.45;5.45;;;9.80;99.90;;;;;;4980183;28;20033;-83
2022/03/14 03:40:19;;;;;;;9.90;5.63;;;9.80;99.90;;;;;;4975963;28;20069;-82
2022/03/14 03:42:44;;;;;;;9.63;6.15;;;9.90;99.90;;;;;;4997123;28;20049;-82
2022/03/14 03:45:13;;;;;;;8.90;5.87;;;9.90;99.90;;;;;;5013006;28;20441;-82
2022/03/14 03:47:40;;;;;;;8.50;5.40;;;9.80;99.90;;;;;;4996591;28;20038;-82
2022/03/14 03:50:06;;;;;;;8.50;5.10;;;9.80;99.90;;;;;;4996929;28;20037;-81
2022/03/14 03:52:32;;;;;;;8.18;5.60;;;9.80;99.90;;;;;;4980115;28;20034;-82
2022/03/14 03:54:57;;;;;;;10.80;6.20;;;9.80;99.90;;;;;;4996850;28;20033;-82
2022/03/14 03:57:23;;;;;;;8.80;5.60;;;9.90;99.90;;;;;;4996416;28;20054;-82
2022/03/14 03:59:49;;;;;;;9.25;5.75;;;9.90;99.90;;;;;;4996576;28;20042;-82
2022/03/14 04:02:19;;;;;;;7.72;5.85;;;9.80;99.90;;;;;;4977912;28;20126;-82
2022/03/14 04:04:49;;;;;;;8.25;5.82;;;9.80;99.90;;;;;;5003980;28;20127;-82
2022/03/14 04:07:18;;;;;;;7.75;5.70;;;9.80;99.90;;;;;;5004522;28;20076;-82
2022/03/14 04:09:46;;;;;;;8.23;5.80;;;9.80;99.90;;;;;;5006173;28;20046;-82
2022/03/14 04:12:11;;;;;;;9.23;5.63;;;9.80;99.90;;;;;;4999827;28;20056;-83
2022/03/14 04:14:38;;;;;;;7.17;5.30;;;9.70;99.90;;;;;;5008624;28;20041;-82
2022/03/14 04:17:04;;;;;;;8.98;5.55;;;9.80;99.90;;;;;;5005418;28;20042;-82
2022/03/14 04:19:30;;;;;;;6.18;4.90;;;9.70;99.90;;;;;;5008366;28;20041;-82
2022/03/14 04:21:56;;;;;;;7.00;4.80;;;9.90;99.90;;;;;;5009712;28;20129;-82
2022/03/14 04:24:22;;;;;;;4.97;3.55;;;9.90;99.90;;;;;;5007664;28;20163;-81
2022/03/14 04:26:49;;;;;;;7.22;3.80;;;9.90;99.90;;;;;;4994149;28;20535;-82
2022/03/14 04:29:15;;;;;;;6.35;4.40;;;10.10;99.90;;;;;;5007674;28;20077;-81
2022/03/14 04:31:41;;;;;;;7.40;3.72;;;10.10;99.90;;;;;;5010327;28;20038;-82
2022/03/14 04:34:07;;;;;;;5.68;4.13;;;10.10;99.90;;;;;;5001148;28;20045;-82
2022/03/14 04:36:33;;;;;;;;;;;10.00;99.90;;;;;;4988243;28;20037;-82
2022/03/14 04:38:59;;;;;;;5.00;3.80;;;10.00;99.90;;;;;;4999278;28;19917;-82
2022/03/14 04:41:25;;;;;;;5.75;4.10;;;10.00;99.90;;;;;;4999039;28;20033;-82
2022/03/14 04:43:50;;;;;;;5.78;3.95;;;10.00;99.90;;;;;;5005980;28;20088;-82
2022/03/14 04:46:16;;;;;;;5.22;3.67;;;10.10;99.90;;;;;;5003032;28;20033;-82
2022/03/14 04:48:42;;;;;;;7.00;3.70;;;10.10;99.90;;;;;;4989598;28;20087;-83
2022/03/14 04:51:08;;;;;;;7.25;4.13;;;10.00;99.90;;;;;;4994363;28;20079;-82
2022/03/14 04:53:35;;;;;;;6.13;3.95;;;10.00;99.90;;;;;;5013765;28;20050;-83
2022/03/14 04:56:01;;;;;;;4.43;3.67;;;10.00;99.90;;;;;;5007638;28;20402;-82
2022/03/14 04:58:27;;;;;;;5.72;3.60;;;10.00;99.90;;;;;;5007511;28;20042;-83
2022/03/14 05:00:54;;;;;;;6.43;3.70;;;10.00;99.90;;;;;;4991599;28;20048;-81
2022/03/14 05:03:20;;;;;;;5.63;3.47;;;9.90;99.90;;;;;;5008503;28;20053;-82
2022/03/14 05:05:46;;;;;;;4.22;3.13;;;9.90;99.90;;;;;;4998335;28;20099;-82
2022/03/14 05:08:12;;;;;;;4.47;3.22;;;10.00;99.90;;;;;;4998268;28;20033;-82
2022/03/14 05:10:38;;;;;;;5.35;3.63;;;10.00;99.90;;;;;;5014416;28;20048;-83
2022/03/14 05:13:03;;;;;;;4.22;3.38;;;9.90;99.90;;;;;;5012470;28;20044;-83
2022/03/14 05:15:32;;;;;;;5.53;3.80;;;9.90;99.90;;;;;;5015594;28;20099;-83
2022/03/14 05:17:57;;;;;;;6.43;3.65;;;9.90;99.90;;;;;;5015240;28;20080;-81
2022/03/14 05:20:24;;;;;;;4.97;3.40;;;9.90;99.90;;;;;;4997896;28;20033;-80
2022/03/14 05:22:50;;;;;;;4.80;3.45;;;9.90;99.90;;;;;;4998187;28;20041;-80
2022/03/14 05:25:20;;;;;;;4.10;3.10;;;9.90;99.90;;;;;;5013657;28;20038;-81
2022/03/14 05:27:46;;;;;;;4.40;3.10;;;9.90;99.90;;;;;;5012577;28;20481;-82
2022/03/14 05:30:13;;;;;;;;;;;9.90;99.90;;;;;;5014186;28;20059;-80
2022/03/14 05:32:42;;;;;;;4.78;3.20;;;10.20;99.90;;;;;;5013418;28;19975;-79
2022/03/14 05:35:11;;;;;;;4.22;3.20;;;10.00;99.90;;;;;;5014103;28;20077;-79
2022/03/14 05:37:40;;;;;;;4.75;3.20;;;10.00;99.90;;;;;;5014023;28;20044;-79
2022/03/14 05:40:08;;;;;;;4.47;3.13;;;9.90;99.90;;;;;;5014158;28;20087;-79
2022/03/14 05:42:33;;;;;;;6.22;3.22;;;9.90;99.90;;;;;;5010885;28;20034;-79
2022/03/14 05:45:00;;;;;;;3.97;3.20;;;9.90;99.90;;;;;;5013883;28;20033;-79
2022/03/14 05:47:26;;;;;;;4.22;2.90;;;10.00;99.90;;;;;;5013658;28;20042;-79
2022/03/14 05:49:51;;;;;;;3.92;3.03;;;10.00;99.90;;;;;;5012744;28;20386;-78
2022/03/14 05:52:21;;;;;;;5.50;3.57;;;9.90;99.90;;;;;;5012898;28;20448;-80
2022/03/14 05:54:46;;;;;;;6.38;3.20;;;9.90;99.90;;;;;;5011717;28;20034;-78
2022/03/14 05:57:12;;;;;;;4.45;3.10;;;9.90;99.90;;;;;;5013064;28;20512;-80
2022/03/14 05:59:38;;;;;;;4.60;3.23;;;9.90;99.90;;;;;;5012769;28;20044;-80
2022/03/14 06:02:04;;;;;;;4.57;3.23;;;9.90;99.90;;;;;;5012634;28;20112;-80
2022/03/14 06:04:29;;;;;;;4.68;3.30;;;9.90;99.90;;;;;;5012157;28;20288;-80
2022/03/14 06:06:56;;;;;;;5.45;3.85;;;9.80;99.90;;;;;;5012827;28;20481;-80
2022/03/14 06:09:25;;;;;;;3.97;3.00;;;9.80;99.90;;;;;;5012194;28;20051;-80
2022/03/14 06:11:51;;;;;;;5.72;3.20;;;9.70;99.90;;;;;;4996746;28;20053;-80
2022/03/14 06:14:17;;;;;;;;;;;9.70;99.90;;;;;;5013827;28;20057;-80
2022/03/14 06:16:43;;;;;;;5.20;3.50;;;9.70;99.90;;;;;;5012694;28;19927;-80
2022/03/14 06:19:09;;;;;;;5.22;3.50;;;9.70;99.90;;;;;;5013027;28;20117;-80
2022/03/14 06:21:35;;;;;;;4.13;3.38;;;9.70;99.90;;;;;;5012563;28;20075;-80
2022/03/14 06:24:02;;;;;;;4.13;3.40;;;9.70;99.90;;;;;;4997026;28;20043;-80
2022/03/14 06:26:27;;;;;;;6.18;3.50;;;9.70;99.90;;;;;;5013114;28;20081;-80
2022/03/14 06:28:53;;;;;;;5.20;3.50;;;9.70;99.90;;;;;;5012875;28;20073;-80
2022/03/14 06:31:19;;;;;;;5.00;3.40;;;9.70;99.90;;;;;;4996693;28;20481;-80
2022/03/14 06:33:45;;;;;;;4.65;3.38;;;9.60;99.90;;;;;;5012843;28;20763;-80
2022/03/14 06:36:10;;;;;;;4.97;3.58;;;9.60;99.90;;;;;;5013043;28;20040;-80
2022/03/14 06:38:36;;;;;;;4.57;3.47;;;9.60;99.90;;;;;;5012699;28;20098;-80
2022/03/14 06:41:02;;;;;;;4.03;3.40;;;9.60;99.90;;;;;;5012895;28;20112;-79
2022/03/14 06:43:31;;;;;;;4.95;3.45;;;9.60;99.90;;;;;;5012847;28;20049;-80
2022/03/14 06:45:57;;;;;;;5.00;3.42;;;9.60;99.90;;;;;;4999667;28;20485;-80
2022/03/14 06:48:22;;;;;;;4.30;3.40;;;9.60;99.90;;;;;;5016360;28;20049;-80
2022/03/14 06:50:48;;;;;;;6.23;3.90;;;9.60;99.90;;;;;;5015673;28;20043;-80
2022/03/14 06:53:14;;;;;;;4.57;3.70;;;9.70;99.90;;;;;;4999990;28;20291;-80
2022/03/14 06:55:40;;;;;;;5.10;4.23;;;9.60;99.90;;;;;;5016236;28;20307;-80
2022/03/14 06:58:05;;;;;;;5.85;4.13;;;9.60;99.90;;;;;;5016625;28;20041;-81
2022/03/14 07:00:31;;;;;;;6.17;4.10;;;9.70;99.90;;;;;;5016223;28;20405;-80
2022/03/14 07:02:57;;;;;;;7.43;3.78;;;9.60;99.90;;;;;;5010466;28;20436;-79
2022/03/14 07:05:24;;;;;;;6.15;3.60;;;9.70;99.90;;;;;;5010152;28;20037;-79
2022/03/14 07:07:53;;;;;;;4.47;3.78;;;9.70;99.90;;;;;;4999544;28;20099;-80
2022/03/14 07:10:20;;;;;;;6.82;4.10;;;9.60;99.90;;;;;;5006433;28;20095;-80
2022/03/14 07:12:46;;;;;;;;;;;9.60;99.90;;;;;;5004379;28;20069;-80
2022/03/14 07:15:18;;;;;;;6.70;4.20;;;9.70;99.90;;;;;;4997430;28;19917;-79
2022/03/14 07:17:44;;;;;;;5.45;3.90;;;9.60;99.90;;;;;;5006204;28;20043;-79
2022/03/14 07:20:11;;;;;;;5.38;4.03;;;9.70;99.90;;;;;;5006388;28;20472;-79
2022/03/14 07:22:54;;;;;;;5.78;4.10;;;9.60;99.90;;;;;;5008843;28;20406;-80
2022/03/14 07:25:29;;;;;;;5.93;4.35;;;9.60;99.90;;;;;;4998366;28;20154;-80
2022/03/14 07:27:58;;;;;;;6.03;4.13;;;9.60;99.90;;;;;;4990105;28;20050;-80
2022/03/14 07:30:23;;;;;;;5.20;3.88;;;9.50;99.90;;;;;;5004485;28;20030;-80
2022/03/14 07:32:49;;;;;;;6.10;4.45;;;9.70;99.90;;;;;;5002310;28;20038;-79
2022/03/14 07:35:15;;;;;;;5.60;4.50;;;9.60;99.90;;;;;;4994522;28;20030;-79
2022/03/14 07:37:42;;;;;;;6.15;4.70;;;9.60;99.90;;;;;;4992044;28;20037;-79
2022/03/14 07:40:11;;;;;;;8.93;4.95;;;9.70;99.90;;;;;;5004714;28;20034;-80
2022/03/14 07:42:45;;;;;;;5.45;4.43;;;9.60;99.90;;;;;;5006053;28;20080;-80
2022/03/14 07:45:13;;;;;;;7.10;5.07;;;9.50;99.90;;;;;;5006240;28;20038;-80
2022/03/14 07:47:40;;;;;;;6.35;4.70;;;9.60;99.90;;;;;;5004608;28;20052;-80
2022/03/14 07:50:08;;;;;;;6.60;4.93;;;9.60;99.90;;;;;;5025167;28;20108;-79
2022/03/14 07:52:34;;;;;;;6.72;4.78;;;9.50;99.90;;;;;;5008287;28;20401;-79
2022/03/14 07:55:00;;;;;;;7.40;5.07;;;9.50;99.90;;;;;;5003108;28;20037;-80
2022/03/14 07:57:26;;;;;;;6.90;5.03;;;9.60;99.90;;;;;;5005863;28;20034;-79
2022/03/14 07:59:52;;;;;;;7.25;5.40;;;9.50;99.90;;;;;;4989495;28;20374;-79
2022/03/14 08:02:18;;;;;;;7.90;5.07;;;9.50;99.90;;;;;;4998768;28;20033;-79
2022/03/14 08:04:43;;;;;;;6.60;5.03;;;9.40;99.90;;;;;;5014791;28;20291;-80
2022/03/14 08:07:09;;;;;;;7.00;5.38;;;9.40;99.90;;;;;;5005922;28;20125;-80
2022/03/14 08:09:35;;;;;;;7.28;5.20;;;9.50;99.90;;;;;;5006645;28;20387;-80
2022/03/14 08:12:01;;;;;;;7.60;5.28;;;9.50;99.90;;;;;;5013603;28;20112;-80
2022/03/14 08:14:27;;;;;;;8.07;5.40;;;9.60;99.90;;;;;;5004917;28;20077;-79
2022/03/14 08:16:53;;;;;;;7.03;5.07;;;9.60;99.90;;;;;;5014449;28;20504;-80
2022/03/14 08:19:20;;;;;;;7.28;5.18;;;9.50;99.90;;;;;;5007398;28;20131;-79
2022/03/14 08:21:47;;;;;;;7.20;5.13;;;9.60;99.90;;;;;;4990973;28;20046;-80
2022/03/14 08:24:14;;;;;;;7.40;5.10;;;9.50;99.90;;;;;;5005233;28;20449;-80
2022/03/14 08:26:41;;;;;;;6.95;5.35;;;9.70;99.90;;;;;;5005349;28;20091;-79
2022/03/14 08:29:07;;;;;;;7.88;5.32;;;9.60;99.90;;;;;;5002022;28;20048;-79
2022/03/14 08:31:32;;;;;;;7.30;5.50;;;9.60;99.90;;;;;;5006573;28;20057;-79
2022/03/14 08:33:59;;;;;;;8.70;5.35;;;9.50;99.90;;;;;;5004572;28;20038;-79
2022/03/14 08:36:25;;;;;;;8.40;5.53;;;9.50;99.90;;;;;;5002249;28;20050;-79
2022/03/14 08:38:50;;;;;;;8.98;6.22;;;9.60;99.90;;;;;;5006896;28;20044;-79
2022/03/14 08:41:17;;;;;;;7.90;5.25;;;9.60;99.90;;;;;;5007219;28;20042;-79
2022/03/14 08:43:43;;;;;;;;;;;9.70;99.90;;;;;;5007430;28;20045;-80
2022/03/14 08:46:10;;;;;;;8.70;5.97;;;9.60;99.90;;;;;;5006608;28;19966;-79
2022/03/14 08:48:36;;;;;;;8.73;5.25;;;9.60;99.90;;;;;;4990981;28;20038;-80
2022/03/14 08:51:03;;;;;;;8.75;6.07;;;9.60;99.90;;;;;;5004550;28;20056;-79
2022/03/14 08:53:29;;;;;;;8.70;5.30;;;9.60;99.90;;;;;;4988594;28;20045;-79
2022/03/14 08:55:55;;;;;;;8.52;6.20;;;9.70;99.90;;;;;;5004169;28;20045;-79
2022/03/14 08:58:22;;;;;;;8.68;5.90;;;9.80;99.90;;;;;;5014193;28;20409;-80
2022/03/14 09:00:47;;;;;;;;;;;9.70;99.90;;;;;;5014100;28;20045;-80
2022/03/14 09:03:13;;;;;;;8.02;6.18;;;9.80;99.90;;;;;;5006911;28;20439;-80
2022/03/14 09:05:39;;;;;;;8.68;6.63;;;9.70;99.90;;;;;;5015500;28;20074;-80
2022/03/14 09:08:04;;;;;;;8.20;6.20;;;9.70;99.90;;;;;;5003332;28;20042;-80
2022/03/14 09:10:36;;;;;;;9.05;6.22;;;10.00;99.90;;;;;;5013704;28;20037;-80
2022/03/14 09:13:03;;;;;;;10.70;6.78;;;9.80;99.90;;;;;;4986664;28;20092;-80
2022/03/14 09:15:30;;;;;;;8.90;6.60;;;9.80;99.90;;;;;;5004442;28;20527;-79
2022/03/14 09:17:59;;;;;;;;;;;9.80;99.90;;;;;;5004578;28;20035;-80
2022/03/14 09:20:26;;;;;;;9.15;6.43;;;9.90;99.90;;;;;;5004188;28;19928;-80
2022/03/14 09:22:53;;;;;;;8.80;6.20;;;9.90;99.90;;;;;;5006041;28;20037;-79
2022/03/14 09:25:20;;;;;;;9.50;6.18;;;9.90;99.90;;;;;;5001809;28;20038;-79
2022/03/14 09:27:48;;;;;;;10.07;7.47;;;10.00;99.90;;;;;;5003940;28;20044;-80
2022/03/14 09:30:15;;;;;;;9.50;6.78;;;10.00;99.90;;;;;;5004474;28;20389;-80
2022/03/14 09:32:42;;;;;;;9.70;7.30;;;9.90;99.90;;;;;;5006272;28;20033;-79
2022/03/14 09:35:09;;;;;;;;;;;10.00;99.90;;;;;;5006513;28;20088;-79
2022/03/14 09:37:39;;;;;;;9.30;7.00;;;10.00;99.90;;;;;;5003882;28;20008;-80
2022/03/14 09:40:10;;;;;;;10.60;7.57;;;10.10;99.90;;;;;;5005911;28;20053;-80
2022/03/14 09:42:38;;;;;;;10.82;7.75;;;10.10;99.90;;;;;;5006295;28;20045;-80
2022/03/14 09:45:06;;;;;;;9.88;7.38;;;10.10;99.90;;;;;;5003273;28;20056;-81
2022/03/14 09:47:48;;;;;;;11.02;7.60;;;10.10;99.90;;;;;;4997108;28;20405;-81
2022/03/14 09:50:20;;;;;;;11.63;8.32;;;10.10;99.90;;;;;;5008604;28;20042;-81
2022/03/14 09:52:47;;;;;;;11.45;8.00;;;10.10;99.90;;;;;;4983873;28;20132;-80
2022/03/14 09:55:13;;;;;;;12.50;8.75;;;10.10;99.90;;;;;;5005648;28;20045;-80
2022/03/14 09:57:39;;;;;;;13.48;9.10;;;10.10;99.90;;;;;;5005823;28;20042;-80
2022/03/14 10:00:10;;;;;;;15.15;9.57;;;10.10;99.90;;;;;;5005848;28;20497;-81
2022/03/14 10:02:36;;;;;;;17.35;11.35;;;10.00;99.90;;;;;;5020329;28;20057;-81
2022/03/14 10:05:06;;;;;;;;;;;9.90;99.90;;;;;;5013371;28;20045;-81
2022/03/14 10:07:34;;;;;;;19.42;12.30;;;9.90;99.90;;;;;;5012898;28;19917;-81
2022/03/14 10:10:00;;;;;;;21.55;13.63;;;9.80;99.90;;;;;;5010700;28;20116;-81
2022/03/14 10:12:26;;;;;;;19.95;12.30;;;9.80;99.90;;;;;;5012927;28;20041;-81
2022/03/14 10:14:52;;;;;;;21.70;11.73;;;9.60;99.90;;;;;;4996924;28;20039;-81
2022/03/14 10:17:17;;;;;;;19.23;12.18;;;9.50;99.90;;;;;;5012615;28;20041;-81
2022/03/14 10:19:57;;;;;;;22.48;13.93;;;9.50;99.90;;;;;;4999969;28;20054;-81
2022/03/14 10:22:23;;;;;;;27.83;15.70;;;9.60;99.90;;;;;;5015780;28;20073;-81
2022/03/14 10:25:00;;;;;;;27.42;15.57;;;9.50;99.90;;;;;;5017131;28;20045;-80
2022/03/14 10:27:26;;;;;;;;;;;9.50;99.90;;;;;;5017585;28;20116;-81
2022/03/14 10:29:52;;;;;;;26.52;14.23;;;9.40;99.90;;;;;;5017156;28;20352;-81
2022/03/14 10:32:30;;;;;;;24.65;13.10;;;9.50;99.90;;;;;;5017055;28;20393;-80
2022/03/14 10:35:06;;;;;;;22.85;12.93;;;9.60;99.90;;;;;;5001941;28;20489;-81
2022/03/14 10:37:34;;;;;;;21.80;13.52;;;9.60;99.90;;;;;;5017081;28;20045;-80
2022/03/14 10:40:04;;;;;;;21.95;11.25;;;9.60;99.90;;;;;;5016338;28;20056;-80
2022/03/14 10:42:38;;;;;;;20.45;10.82;;;9.60;99.90;;;;;;5000417;28;20041;-80
2022/03/14 10:45:10;;;;;;;18.30;9.93;;;9.60;99.90;;;;;;5012344;28;20033;-80
2022/03/14 10:47:37;;;;;;;19.00;9.73;;;9.70;99.90;;;;;;5016422;28;20038;-81
2022/03/14 10:50:02;;;;;;;;;;;9.70;99.90;;;;;;4993531;28;20389;-81
2022/03/14 10:52:28;;;;;;;22.17;10.07;;;9.70;99.90;;;;;;5016598;28;19917;-80
2022/03/14 10:54:55;;;;;;;18.02;10.23;;;9.80;99.90;;;;;;5000277;28;20053;-79
2022/03/14 10:57:23;;;;;;;;;;;9.90;99.90;;;;;;5016310;28;20073;-82
2022/03/14 10:59:52;;;;;;;18.77;9.27;;;9.90;99.90;;;;;;5016427;28;19917;-81
2022/03/14 11:02:23;;;;;;;18.25;8.63;;;10.00;99.90;;;;;;5016179;28;20041;-81
2022/03/14 11:04:51;;;;;;;22.52;9.85;;;10.00;99.90;;;;;;5026210;28;20573;-81
2022/03/14 11:07:40;;;;;;;20.05;8.95;;;10.00;99.90;;;;;;5017379;28;20621;-81
2022/03/14 11:10:06;;;;;;;18.42;8.63;;;10.00;99.90;;;;;;5016936;28;20041;-80
2022/03/14 11:12:32;;;;;;;17.45;7.68;;;10.10;99.90;;;;;;5015992;28;20038;-80
2022/03/14 11:15:06;;;;;;;19.13;7.32;;;10.10;99.90;;;;;;5015993;28;20037;-81
2022/03/14 11:17:36;;;;;;;19.83;8.38;;;10.10;99.90;;;;;;5037045;28;20124;-81
2022/03/14 11:20:03;;;;;;;18.38;8.05;;;10.00;99.90;;;;;;5015619;28;20049;-81
2022/03/14 11:22:29;;;;;;;;;;;10.00;99.90;;;;;;5034624;28;20130;-81
2022/03/14 11:24:57;;;;;;;15.73;7.10;;;10.00;99.90;;;;;;5031422;28;19971;-81
2022/03/14 11:27:24;;;;;;;16.13;6.93;;;10.00;99.90;;;;;;5013209;28;20045;-80
2022/03/14 11:29:53;;;;;;;16.73;6.82;;;10.50;99.90;;;;;;5018264;28;20045;-81
2022/03/14 11:32:20;;;;;;;14.77;6.13;;;10.20;99.90;;;;;;5016259;28;20049;-81
2022/03/14 11:34:47;;;;;;;18.45;6.05;;;10.20;99.90;;;;;;5036075;28;20041;-81
2022/03/14 11:37:14;;;;;;;14.57;6.78;;;10.20;99.90;;;;;;5037016;28;20559;-81
2022/03/14 11:39:40;;;;;;;14.32;6.28;;;10.30;99.90;;;;;;5015138;28;20050;-81
2022/03/14 11:42:07;;;;;;;16.98;6.35;;;10.30;99.90;;;;;;5014891;28;20064;-81
2022/03/14 11:44:34;;;;;;;13.52;6.90;;;10.30;99.90;;;;;;5017363;28;20049;-81
2022/03/14 11:47:00;;;;;;;15.10;6.70;;;10.40;99.90;;;;;;5015104;28;20041;-80
2022/03/14 11:49:31;;;;;;;14.25;6.85;;;10.30;99.90;;;;;;5016885;28;20116;-80
2022/03/14 11:52:24;;;;;;;17.88;8.15;;;10.40;99.90;;;;;;5014259;28;20524;-80
2022/03/14 11:54:59;;;;;;;16.08;7.00;;;10.30;99.90;;;;;;5016999;28;20164;-80
2022/03/14 11:57:52;;;;;;;19.15;7.72;;;10.40;99.90;;;;;;5016689;28;20037;-80
2022/03/14 12:00:32;;;;;;;16.10;7.50;;;10.40;99.90;;;;;;5011933;28;20057;-80
2022/03/14 12:03:07;;;;;;;16.15;7.90;;;10.40;99.90;;;;;;5020572;28;20128;-79
2022/03/14 12:05:33;;;;;;;16.85;8.55;;;10.40;99.90;;;;;;5016991;28;20045;-81
2022/03/14 12:08:00;;;;;;;18.67;8.70;;;10.30;99.90;;;;;;5015013;28;20053;-80
2022/03/14 12:10:31;;;;;;;14.85;8.10;;;10.30;99.90;;;;;;5016123;28;20037;-80
2022/03/14 12:13:01;;;;;;;16.70;8.57;;;10.40;99.90;;;;;;5000377;28;20042;-80
2022/03/14 12:15:48;;;;;;;19.95;8.55;;;10.30;99.90;;;;;;5014216;28;20061;-80
2022/03/14 12:18:23;;;;;;;20.20;8.05;;;10.30;99.90;;;;;;5032395;28;20044;-81
2022/03/14 12:21:02;;;;;;;17.58;8.43;;;10.30;99.90;;;;;;5016868;28;20041;-81
2022/03/14 12:23:31;;;;;;;18.92;8.93;;;10.30;99.90;;;;;;5016311;28;20041;-81
2022/03/14 12:26:02;;;;;;;20.33;8.57;;;10.30;99.90;;;;;;5015978;28;20033;-81
2022/03/14 12:28:33;;;;;;;17.73;8.93;;;10.30;99.90;;;;;;5017075;28;20095;-81
2022/03/14 12:31:15;;;;;;;20.67;9.60;;;10.40;99.90;;;;;;5017220;28;20106;-81
2022/03/14 12:33:47;;;;;;;19.58;9.00;;;10.30;99.90;;;;;;5016280;28;20040;-81
2022/03/14 12:36:31;;;;;;;19.73;9.40;;;10.40;99.90;;;;;;5033481;28;20038;-81
2022/03/14 12:39:09;;;;;;;19.23;10.02;;;10.40;99.90;;;;;;5009477;28;20094;-81
2022/03/14 12:41:41;;;;;;;19.65;10.63;;;10.60;99.90;;;;;;5018914;28;20067;-81
2022/03/14 12:44:24;;;;;;;21.33;10.88;;;10.60;99.90;;;;;;5015099;28;20393;-80
2022/03/14 12:46:56;;;;;;;21.70;10.60;;;10.70;99.90;;;;;;5014326;28;20477;-81
2022/03/14 12:49:26;;;;;;;24.73;11.50;;;10.80;99.90;;;;;;5015670;28;20057;-81
2022/03/14 12:52:21;;;;;;;23.45;10.15;;;10.80;99.90;;;;;;5016318;28;20037;-81
2022/03/14 12:54:48;;;;;;;28.88;10.90;;;11.00;99.90;;;;;;4999905;28;20053;-81